createdAt,value
2022-12-29T00:00:04.669Z,19.99
2022-12-29T00:02:37.791Z,19.99
2022-12-29T00:05:10.642Z,19.98
2022-12-29T00:07:43.552Z,19.98
2022-12-29T00:10:16.696Z,19.97
2022-12-29T00:12:49.606Z,19.97
2022-12-29T00:15:23.660Z,19.97
2022-12-29T00:17:56.613Z,19.97
2022-12-29T00:20:29.701Z,19.96
2022-12-29T00:23:02.604Z,19.96
2022-12-29T00:25:35.691Z,19.96
2022-12-29T00:28:08.778Z,19.95
2022-12-29T00:30:41.363Z,19.95
2022-12-29T00:33:14.668Z,19.94
2022-12-29T00:35:47.768Z,19.94
2022-12-29T00:38:20.623Z,19.94
2022-12-29T00:40:53.714Z,19.94
2022-12-29T00:43:32.610Z,19.93
2022-12-29T00:46:05.444Z,19.93
2022-12-29T00:48:38.794Z,19.92
2022-12-29T00:51:11.628Z,19.92
2022-12-29T00:53:44.774Z,19.91
2022-12-29T00:56:17.686Z,19.91
2022-12-29T00:58:50.784Z,19.91
2022-12-29T01:01:23.914Z,19.90
2022-12-29T01:04:01.956Z,19.90
2022-12-29T01:06:29.695Z,19.90
2022-12-29T01:09:02.786Z,19.89
2022-12-29T01:11:35.711Z,19.89
2022-12-29T01:14:08.907Z,19.88
2022-12-29T01:16:42.723Z,19.87
2022-12-29T01:19:15.730Z,19.87
2022-12-29T01:21:48.720Z,19.87
2022-12-29T01:24:21.732Z,19.87
2022-12-29T01:26:54.793Z,19.87
2022-12-29T01:29:27.831Z,19.87
2022-12-29T01:32:00.863Z,19.87
2022-12-29T01:34:33.817Z,19.87
2022-12-29T01:37:06.765Z,19.86
2022-12-29T01:39:39.813Z,19.86
2022-12-29T01:42:12.804Z,19.86
2022-12-29T01:44:45.776Z,19.86
2022-12-29T01:47:18.917Z,19.86
2022-12-29T01:49:52.745Z,19.85
2022-12-29T01:52:25.839Z,19.85
2022-12-29T01:54:58.889Z,19.85
2022-12-29T01:57:31.855Z,19.85
2022-12-29T02:00:04.902Z,19.85
2022-12-29T02:02:38.004Z,19.84
2022-12-29T02:05:10.851Z,19.84
2022-12-29T02:07:43.750Z,19.84
2022-12-29T02:10:16.888Z,19.84
2022-12-29T02:12:49.813Z,19.84
2022-12-29T02:15:22.921Z,19.84
2022-12-29T02:17:55.814Z,19.84
2022-12-29T02:20:28.899Z,19.84
2022-12-29T02:23:01.859Z,19.84
2022-12-29T02:25:34.890Z,19.83
2022-12-29T02:28:07.852Z,19.83
2022-12-29T02:30:40.716Z,19.83
2022-12-29T02:33:13.837Z,19.83
2022-12-29T02:35:46.945Z,19.83
2022-12-29T02:38:19.932Z,19.82
2022-12-29T02:40:52.901Z,19.82
2022-12-29T02:43:25.803Z,19.82
2022-12-29T02:45:59.023Z,19.82
2022-12-29T02:48:31.909Z,19.82
2022-12-29T02:51:04.905Z,19.81
2022-12-29T02:53:37.833Z,19.81
2022-12-29T02:56:10.981Z,19.81
2022-12-29T02:58:43.846Z,19.81
2022-12-29T03:01:17.149Z,19.80
2022-12-29T03:03:49.871Z,19.80
2022-12-29T03:06:22.813Z,19.80
2022-12-29T03:09:18.760Z,19.79
2022-12-29T03:11:42.978Z,19.79
2022-12-29T03:14:15.851Z,19.79
2022-12-29T03:16:48.956Z,19.79
2022-12-29T03:19:27.922Z,19.79
2022-12-29T03:22:00.851Z,19.78
2022-12-29T03:24:36.788Z,19.78
2022-12-29T03:27:09.878Z,19.78
2022-12-29T03:29:43.027Z,19.78
2022-12-29T03:32:29.979Z,19.78
2022-12-29T03:35:02.967Z,19.78
2022-12-29T03:37:35.981Z,19.78
2022-12-29T03:40:08.989Z,19.78
2022-12-29T03:42:41.895Z,19.77
2022-12-29T03:45:14.879Z,19.77
2022-12-29T03:47:47.912Z,19.77
2022-12-29T03:50:20.947Z,19.77
2022-12-29T03:52:53.921Z,19.77
2022-12-29T03:55:26.931Z,19.77
2022-12-29T03:57:59.973Z,19.76
2022-12-29T04:00:33.025Z,19.76
2022-12-29T04:03:06.064Z,19.76
2022-12-29T04:05:39.060Z,19.76
2022-12-29T04:08:12.058Z,19.75
2022-12-29T04:10:45.034Z,19.75
2022-12-29T04:13:17.972Z,19.75
2022-12-29T04:15:51.041Z,19.74
2022-12-29T04:18:38.047Z,19.74
2022-12-29T04:21:10.896Z,19.74
2022-12-29T04:23:44.236Z,19.74
2022-12-29T04:26:17.977Z,19.74
2022-12-29T04:28:51.034Z,19.74
2022-12-29T04:31:24.085Z,19.74
2022-12-29T04:33:57.088Z,19.73
2022-12-29T04:36:30.462Z,19.73
2022-12-29T04:39:03.029Z,19.73
2022-12-29T04:41:36.085Z,19.73
2022-12-29T04:44:09.103Z,19.72
2022-12-29T04:46:42.122Z,19.72
2022-12-29T04:49:15.040Z,19.72
2022-12-29T04:51:48.109Z,19.72
2022-12-29T04:54:21.063Z,19.72
2022-12-29T04:56:57.924Z,19.71
2022-12-29T04:59:31.102Z,19.71
2022-12-29T05:02:04.128Z,19.71
2022-12-29T05:04:37.072Z,19.71
2022-12-29T05:07:10.014Z,19.71
2022-12-29T05:09:43.103Z,19.71
2022-12-29T05:12:16.037Z,19.71
2022-12-29T05:14:49.002Z,19.70
2022-12-29T05:17:22.065Z,19.70
2022-12-29T05:19:55.180Z,19.70
2022-12-29T05:22:28.246Z,19.70
2022-12-29T05:25:02.178Z,19.70
2022-12-29T05:27:35.065Z,19.70
2022-12-29T05:30:08.208Z,19.70
2022-12-29T05:32:41.153Z,19.70
2022-12-29T05:35:14.147Z,19.69
2022-12-29T05:37:47.165Z,19.69
2022-12-29T05:40:20.176Z,19.69
2022-12-29T05:42:53.078Z,19.69
2022-12-29T05:45:26.067Z,19.69
2022-12-29T05:47:59.189Z,19.69
2022-12-29T05:50:32.178Z,19.69
2022-12-29T05:53:05.119Z,19.69
2022-12-29T05:55:41.022Z,19.69
2022-12-29T05:58:11.117Z,19.69
2022-12-29T06:00:43.996Z,19.69
2022-12-29T06:03:17.170Z,19.69
2022-12-29T06:05:50.190Z,19.69
2022-12-29T06:08:23.235Z,19.68
2022-12-29T06:10:56.113Z,19.68
2022-12-29T06:13:29.253Z,19.68
2022-12-29T06:16:02.272Z,19.68
2022-12-29T06:18:34.930Z,19.68
2022-12-29T06:21:08.297Z,19.68
2022-12-29T06:23:41.208Z,19.68
2022-12-29T06:26:14.268Z,19.68
2022-12-29T06:28:47.225Z,19.68
2022-12-29T06:31:20.274Z,19.68
2022-12-29T06:33:53.224Z,19.68
2022-12-29T06:36:26.187Z,19.68
2022-12-29T06:38:59.267Z,19.68
2022-12-29T06:41:32.627Z,19.68
2022-12-29T06:44:05.277Z,19.67
2022-12-29T06:46:37.888Z,19.67
2022-12-29T06:49:11.193Z,19.67
2022-12-29T06:51:44.271Z,19.67
2022-12-29T06:54:17.348Z,19.67
2022-12-29T06:56:51.267Z,19.67
2022-12-29T06:59:24.321Z,19.67
2022-12-29T07:01:57.270Z,19.67
2022-12-29T07:04:30.318Z,19.66
2022-12-29T07:07:03.317Z,19.66
2022-12-29T07:09:36.083Z,19.66
2022-12-29T07:12:09.312Z,19.66
2022-12-29T07:14:43.472Z,19.66
2022-12-29T07:17:15.327Z,19.66
2022-12-29T07:19:48.318Z,19.65
2022-12-29T07:22:21.374Z,19.65
2022-12-29T07:24:54.339Z,19.65
2022-12-29T07:27:27.310Z,19.65
2022-12-29T07:30:00.376Z,19.65
2022-12-29T07:32:33.276Z,19.64
2022-12-29T07:35:06.362Z,19.64
2022-12-29T07:37:39.286Z,19.64
2022-12-29T07:40:26.254Z,19.64
2022-12-29T07:42:59.285Z,19.64
2022-12-29T07:45:32.397Z,19.64
2022-12-29T07:48:05.270Z,19.64
2022-12-29T07:50:38.159Z,19.64
2022-12-29T07:53:11.243Z,19.64
2022-12-29T07:55:44.181Z,19.64
2022-12-29T07:58:17.323Z,19.64
2022-12-29T08:00:50.436Z,19.64
2022-12-29T08:03:23.386Z,19.64
2022-12-29T08:05:56.385Z,19.64
2022-12-29T08:08:29.347Z,19.63
2022-12-29T08:11:16.232Z,19.63
2022-12-29T08:13:49.406Z,19.63
2022-12-29T08:16:22.312Z,19.63
2022-12-29T08:18:55.441Z,19.63
2022-12-29T08:21:28.325Z,19.63
2022-12-29T08:24:01.466Z,19.63
2022-12-29T08:26:34.184Z,19.63
2022-12-29T08:29:07.239Z,19.63
2022-12-29T08:31:40.163Z,19.63
2022-12-29T08:34:13.059Z,19.63
2022-12-29T08:36:46.099Z,19.63
2022-12-29T08:39:19.139Z,19.63
2022-12-29T08:41:52.434Z,19.63
2022-12-29T08:44:25.341Z,19.63
2022-12-29T08:46:58.464Z,19.63
2022-12-29T08:49:31.445Z,19.63
2022-12-29T08:52:04.314Z,19.63
2022-12-29T08:54:37.185Z,19.64
2022-12-29T08:57:10.400Z,19.64
2022-12-29T08:59:43.461Z,19.64
2022-12-29T09:02:22.062Z,19.63
2022-12-29T09:04:49.525Z,19.63
2022-12-29T09:07:22.513Z,19.63
2022-12-29T09:09:55.334Z,19.63
2022-12-29T09:12:34.501Z,19.64
2022-12-29T09:15:01.383Z,19.64
2022-12-29T09:17:34.545Z,19.63
2022-12-29T09:20:07.299Z,19.63
2022-12-29T09:22:40.246Z,19.64
2022-12-29T09:25:13.365Z,19.63
2022-12-29T09:27:46.304Z,19.63
2022-12-29T09:30:19.172Z,19.63
2022-12-29T09:32:55.330Z,19.63
2022-12-29T09:35:25.406Z,19.63
2022-12-29T09:37:58.481Z,19.63
2022-12-29T09:40:31.575Z,19.63
2022-12-29T09:43:04.455Z,19.63
2022-12-29T09:45:37.544Z,19.63
2022-12-29T09:48:10.449Z,19.62
2022-12-29T09:50:43.278Z,19.62
2022-12-29T09:53:16.447Z,19.62
2022-12-29T09:55:49.593Z,19.62
2022-12-29T09:58:22.490Z,19.62
2022-12-29T10:00:55.895Z,19.62
2022-12-29T10:03:28.532Z,19.63
2022-12-29T10:06:01.367Z,19.64
2022-12-29T10:08:34.263Z,19.64
2022-12-29T10:11:07.308Z,19.64
2022-12-29T10:13:40.313Z,19.63
2022-12-29T10:16:13.660Z,19.61
2022-12-29T10:18:46.611Z,19.60
2022-12-29T10:21:19.648Z,19.60
2022-12-29T10:23:52.584Z,19.60
2022-12-29T10:26:25.289Z,19.61
2022-12-29T10:28:58.527Z,19.61
2022-12-29T10:31:31.565Z,19.62
2022-12-29T10:34:04.523Z,19.63
2022-12-29T10:36:37.624Z,19.64
2022-12-29T10:39:10.590Z,19.66
2022-12-29T10:41:46.527Z,19.67
2022-12-29T10:44:19.322Z,19.68
2022-12-29T10:46:52.506Z,19.69
2022-12-29T10:49:25.514Z,19.71
2022-12-29T10:51:58.579Z,19.72
2022-12-29T10:54:31.654Z,19.73
2022-12-29T10:57:04.705Z,19.74
2022-12-29T10:59:37.570Z,19.75
2022-12-29T11:02:10.767Z,19.76
2022-12-29T11:04:43.269Z,19.77
2022-12-29T11:07:17.032Z,19.78
2022-12-29T11:09:49.310Z,19.79
2022-12-29T11:12:22.605Z,19.80
2022-12-29T11:14:55.465Z,19.80
2022-12-29T11:17:28.476Z,19.81
2022-12-29T11:20:01.414Z,19.82
2022-12-29T11:22:34.697Z,19.83
2022-12-29T11:25:07.711Z,19.83
2022-12-29T11:27:40.579Z,19.84
2022-12-29T11:30:13.577Z,19.85
2022-12-29T11:32:46.346Z,19.86
2022-12-29T11:35:19.567Z,19.87
2022-12-29T11:37:55.492Z,19.88
2022-12-29T11:40:28.346Z,19.89
2022-12-29T11:43:01.450Z,19.91
2022-12-29T11:45:34.590Z,19.92
2022-12-29T11:48:07.741Z,19.93
2022-12-29T11:50:40.453Z,19.94
2022-12-29T11:53:13.615Z,19.95
2022-12-29T11:55:46.749Z,19.95
2022-12-29T11:58:19.501Z,19.96
2022-12-29T12:00:52.609Z,19.96
2022-12-29T12:03:25.837Z,19.97
2022-12-29T12:05:58.390Z,19.97
2022-12-29T12:08:31.432Z,19.98
2022-12-29T12:11:04.597Z,19.98
2022-12-29T12:13:37.760Z,19.99
2022-12-29T12:16:10.761Z,20.00
2022-12-29T12:18:43.797Z,20.00
2022-12-29T12:21:16.711Z,20.01
2022-12-29T12:23:49.565Z,20.01
2022-12-29T12:26:22.591Z,20.02
2022-12-29T12:28:55.847Z,20.03
2022-12-29T12:31:28.875Z,20.04
2022-12-29T12:34:01.745Z,20.05
2022-12-29T12:36:34.720Z,20.05
2022-12-29T12:39:07.738Z,20.06
2022-12-29T12:41:40.568Z,20.07
2022-12-29T12:44:13.475Z,20.08
2022-12-29T12:46:46.491Z,20.08
2022-12-29T12:49:19.727Z,20.09
2022-12-29T12:51:52.748Z,20.09
2022-12-29T12:54:25.893Z,20.09
2022-12-29T12:56:58.644Z,20.09
2022-12-29T12:59:31.682Z,20.09
2022-12-29T13:02:04.960Z,20.08
2022-12-29T13:04:37.602Z,20.07
2022-12-29T13:07:10.486Z,20.06
2022-12-29T13:09:43.475Z,20.05
2022-12-29T13:12:16.645Z,20.04
2022-12-29T13:14:49.699Z,20.03
2022-12-29T13:17:22.632Z,20.02
2022-12-29T13:19:55.539Z,20.01
2022-12-29T13:22:28.678Z,20.00
2022-12-29T13:25:01.795Z,19.99
2022-12-29T13:27:37.540Z,19.99
2022-12-29T13:30:07.620Z,19.98
2022-12-29T13:32:43.557Z,19.97
2022-12-29T13:35:16.530Z,19.96
2022-12-29T13:37:49.925Z,19.95
2022-12-29T13:40:22.739Z,19.95
2022-12-29T13:42:55.583Z,19.95
2022-12-29T13:45:28.787Z,19.94
2022-12-29T13:48:01.606Z,19.95
2022-12-29T13:50:34.653Z,19.95
2022-12-29T13:53:07.907Z,19.95
2022-12-29T13:55:40.857Z,19.95
2022-12-29T13:58:13.987Z,19.95
2022-12-29T14:00:47.597Z,19.96
2022-12-29T14:03:24.904Z,19.97
2022-12-29T14:05:53.995Z,19.97
2022-12-29T14:08:27.847Z,19.98
2022-12-29T14:11:00.629Z,19.98
2022-12-29T14:13:33.581Z,19.99
2022-12-29T14:16:06.774Z,19.99
2022-12-29T14:18:41.923Z,20.00
2022-12-29T14:21:14.841Z,20.00
2022-12-29T14:23:47.866Z,20.01
2022-12-29T14:26:20.965Z,20.01
2022-12-29T14:28:53.826Z,20.02
2022-12-29T14:31:26.941Z,20.02
2022-12-29T14:33:59.859Z,20.03
2022-12-29T14:36:32.604Z,20.03
2022-12-29T14:39:05.756Z,20.04
2022-12-29T14:41:38.966Z,20.04
2022-12-29T14:44:11.845Z,20.05
2022-12-29T14:46:45.130Z,20.05
2022-12-29T14:49:17.816Z,20.05
2022-12-29T14:51:50.895Z,20.06
2022-12-29T14:54:23.732Z,20.06
2022-12-29T14:56:57.042Z,20.07
2022-12-29T14:59:29.929Z,20.07
2022-12-29T15:02:03.069Z,20.07
2022-12-29T15:04:35.700Z,20.08
2022-12-29T15:07:08.863Z,20.08
2022-12-29T15:09:41.637Z,20.08
2022-12-29T15:12:16.678Z,20.08
2022-12-29T15:14:47.669Z,20.08
2022-12-29T15:17:20.847Z,20.08
2022-12-29T15:19:53.820Z,20.09
2022-12-29T15:22:27.060Z,20.09
2022-12-29T15:24:59.729Z,20.09
2022-12-29T15:27:32.971Z,20.09
2022-12-29T15:30:05.955Z,20.10
2022-12-29T15:32:38.774Z,20.10
2022-12-29T15:35:11.959Z,20.10
2022-12-29T15:37:44.815Z,20.10
2022-12-29T15:40:17.799Z,20.10
2022-12-29T15:42:50.875Z,20.10
2022-12-29T15:45:24.013Z,20.10
2022-12-29T15:47:56.944Z,20.11
2022-12-29T15:50:29.981Z,20.11
2022-12-29T15:53:03.098Z,20.12
2022-12-29T15:55:36.089Z,20.12
2022-12-29T15:58:09.109Z,20.13
2022-12-29T16:00:41.781Z,20.13
2022-12-29T16:03:15.250Z,20.13
2022-12-29T16:05:48.069Z,20.13
2022-12-29T16:08:20.930Z,20.13
2022-12-29T16:10:53.981Z,20.13
2022-12-29T16:13:26.921Z,20.13
2022-12-29T16:16:00.088Z,20.12
2022-12-29T16:18:33.083Z,20.12
2022-12-29T16:21:06.015Z,20.12
2022-12-29T16:23:38.931Z,20.12
2022-12-29T16:26:12.057Z,20.11
2022-12-29T16:28:46.962Z,20.10
2022-12-29T16:31:24.482Z,20.09
2022-12-29T16:33:58.026Z,20.08
2022-12-29T16:36:30.927Z,20.06
2022-12-29T16:39:03.952Z,20.05
2022-12-29T16:41:36.967Z,20.04
2022-12-29T16:44:09.786Z,20.03
2022-12-29T16:46:42.983Z,20.02
2022-12-29T16:51:54.094Z,20.00
2022-12-29T16:54:26.813Z,19.99
2022-12-29T16:56:59.961Z,19.98
2022-12-29T16:59:32.925Z,19.98
2022-12-29T17:02:06.287Z,19.97
2022-12-29T17:04:39.177Z,19.96
2022-12-29T17:07:12.153Z,19.95
2022-12-29T17:09:45.151Z,19.94
2022-12-29T17:12:18.018Z,19.94
2022-12-29T17:14:51.244Z,19.93
2022-12-29T17:17:23.889Z,19.92
2022-12-29T17:19:57.148Z,19.92
2022-12-29T17:22:30.010Z,19.91
2022-12-29T17:25:03.074Z,19.90
2022-12-29T17:27:36.199Z,19.90
2022-12-29T17:30:08.872Z,19.89
2022-12-29T17:32:41.911Z,19.88
2022-12-29T17:35:14.886Z,19.88
2022-12-29T17:37:47.877Z,19.87
2022-12-29T17:40:21.187Z,19.86
2022-12-29T17:42:54.292Z,19.86
2022-12-29T17:45:29.031Z,19.85
2022-12-29T17:48:02.238Z,19.85
2022-12-29T17:50:34.944Z,19.85
2022-12-29T17:53:07.915Z,19.85
2022-12-29T17:55:40.996Z,19.84
2022-12-29T17:58:14.283Z,19.84
2022-12-29T18:00:47.176Z,19.83
2022-12-29T18:03:20.414Z,19.83
2022-12-29T18:05:53.110Z,19.83
2022-12-29T18:08:25.976Z,19.83
2022-12-29T18:10:59.090Z,19.83
2022-12-29T18:13:43.597Z,19.82
2022-12-29T18:16:05.196Z,19.82
2022-12-29T18:18:38.056Z,19.82
2022-12-29T18:21:10.935Z,19.81
2022-12-29T18:23:44.323Z,19.80
2022-12-29T18:26:27.706Z,19.80
2022-12-29T18:28:55.956Z,19.80
2022-12-29T18:31:29.322Z,19.79
2022-12-29T18:34:02.368Z,19.79
2022-12-29T18:36:35.304Z,19.78
2022-12-29T18:39:08.405Z,19.78
2022-12-29T18:41:41.153Z,19.78
2022-12-29T18:44:14.123Z,19.77
2022-12-29T18:46:47.397Z,19.77
2022-12-29T18:49:20.065Z,19.76
2022-12-29T18:51:53.028Z,19.76
2022-12-29T18:54:26.396Z,19.75
2022-12-29T18:56:59.390Z,19.75
2022-12-29T18:59:32.378Z,19.74
2022-12-29T19:02:05.529Z,19.74
2022-12-29T19:04:38.184Z,19.73
2022-12-29T19:07:11.009Z,19.72
2022-12-29T19:09:44.143Z,19.72
2022-12-29T19:12:17.017Z,19.72
2022-12-29T19:14:50.192Z,19.71
2022-12-29T19:17:23.019Z,19.70
2022-12-29T19:19:56.291Z,19.70
2022-12-29T19:22:29.206Z,19.70
2022-12-29T19:25:02.444Z,19.69
2022-12-29T19:27:35.052Z,19.69
2022-12-29T19:30:08.191Z,19.68
2022-12-29T19:32:41.224Z,19.68
2022-12-29T19:35:14.335Z,19.67
2022-12-29T19:37:47.075Z,19.67
2022-12-29T19:40:20.253Z,19.66
2022-12-29T19:42:53.277Z,19.66
2022-12-29T19:45:26.050Z,19.65
2022-12-29T19:47:59.141Z,19.64
2022-12-29T19:50:32.110Z,19.64
2022-12-29T19:53:05.859Z,19.64
2022-12-29T19:55:38.279Z,19.63
2022-12-29T19:58:11.102Z,19.63
2022-12-29T20:00:44.166Z,19.63
2022-12-29T20:03:17.175Z,19.62
2022-12-29T20:05:50.255Z,19.62
2022-12-29T20:08:23.333Z,19.62
2022-12-29T20:10:56.488Z,19.61
2022-12-29T20:13:29.226Z,19.61
2022-12-29T20:16:02.140Z,19.60
2022-12-29T20:18:35.282Z,19.60
2022-12-29T20:21:08.398Z,19.59
2022-12-29T20:23:41.312Z,19.59
2022-12-29T20:26:14.202Z,19.58
2022-12-29T20:28:47.507Z,19.58
2022-12-29T20:31:20.203Z,19.58
2022-12-29T20:33:53.131Z,19.57
2022-12-29T20:36:26.511Z,19.57
2022-12-29T20:38:59.210Z,19.57
2022-12-29T20:41:32.340Z,19.56
2022-12-29T20:44:05.182Z,19.56
2022-12-29T20:46:43.461Z,19.55
2022-12-29T20:49:11.565Z,19.55
2022-12-29T20:52:05.642Z,19.55
2022-12-29T20:54:17.462Z,19.54
2022-12-29T20:56:50.523Z,19.54
2022-12-29T20:59:28.212Z,19.53
2022-12-29T21:01:56.768Z,19.53
2022-12-29T21:04:43.616Z,19.53
2022-12-29T21:07:02.181Z,19.53
2022-12-29T21:09:35.209Z,19.52
2022-12-29T21:12:08.598Z,19.52
2022-12-29T21:14:45.551Z,19.52
2022-12-29T21:17:14.222Z,19.51
2022-12-29T21:19:47.500Z,19.51
2022-12-29T21:22:20.481Z,19.50
2022-12-29T21:24:53.596Z,19.50
2022-12-29T21:27:29.408Z,19.50
2022-12-29T21:30:02.634Z,19.49
2022-12-29T21:32:35.642Z,19.49
2022-12-29T21:35:08.507Z,19.49
2022-12-29T21:37:41.410Z,19.49
2022-12-29T21:40:14.528Z,19.48
2022-12-29T21:42:47.749Z,19.48
2022-12-29T21:45:21.260Z,19.48
2022-12-29T21:47:53.349Z,19.47
2022-12-29T21:50:26.452Z,19.47
2022-12-29T21:52:59.382Z,19.47
2022-12-29T21:55:32.534Z,19.46
2022-12-29T21:58:05.288Z,19.46
2022-12-29T22:00:38.377Z,19.46
2022-12-29T22:03:18.610Z,19.46
2022-12-29T22:05:44.569Z,19.46
2022-12-29T22:08:17.581Z,19.45
2022-12-29T22:10:50.608Z,19.45
2022-12-29T22:13:23.713Z,19.45
2022-12-29T22:15:56.747Z,19.44
2022-12-29T22:18:29.296Z,19.44
2022-12-29T22:21:02.672Z,19.44
2022-12-29T22:23:35.648Z,19.44
2022-12-29T22:26:08.470Z,19.43
2022-12-29T22:28:41.719Z,19.43
2022-12-29T22:31:14.395Z,19.42
2022-12-29T22:33:47.421Z,19.42
2022-12-29T22:36:20.689Z,19.42
2022-12-29T22:38:53.724Z,19.42
2022-12-29T22:41:26.716Z,19.42
2022-12-29T22:43:59.732Z,19.43
2022-12-29T22:46:32.535Z,19.43
2022-12-29T22:49:05.674Z,19.43
2022-12-29T22:51:38.577Z,19.43
2022-12-29T22:54:11.665Z,19.43
2022-12-29T22:56:44.750Z,19.44
2022-12-29T22:59:17.661Z,19.44
2022-12-29T23:01:50.968Z,19.44
2022-12-29T23:05:01.828Z,19.44
2022-12-29T23:06:56.617Z,19.44
2022-12-29T23:09:29.591Z,19.45
2022-12-29T23:12:02.811Z,19.45
2022-12-29T23:14:35.811Z,19.45
2022-12-29T23:17:08.723Z,19.45
2022-12-29T23:19:41.779Z,19.45
2022-12-29T23:22:17.614Z,19.46
2022-12-29T23:24:50.860Z,19.46
2022-12-29T23:27:24.819Z,19.46
2022-12-29T23:29:57.472Z,19.46
2022-12-29T23:32:30.676Z,19.46
2022-12-29T23:35:03.633Z,19.46
2022-12-29T23:37:36.707Z,19.46
2022-12-29T23:40:09.632Z,19.47
2022-12-29T23:42:42.759Z,19.47
2022-12-29T23:45:15.744Z,19.47
2022-12-29T23:47:51.646Z,19.47
2022-12-29T23:50:24.801Z,19.47
2022-12-29T23:52:57.833Z,19.47
2022-12-29T23:55:30.767Z,19.47
2022-12-29T23:58:03.697Z,19.47
